Time;durP1;ratioP1;P1;durP2;ratioP2;P2;SDS_P1;SDS_P2;PMS_P1;PMS_P2;Temp;Humidity;BMP_temperature;BMP_pressure;BME280_temperature;BME280_humidity;BME280_pressure;Samples;Min_cycle;Max_cycle;Signal;HPM_P1;HPM_P2
2020/12/16 00:04:17;;;;;;;8.57;7.70;;;9.10;99.90;;;;;;10326707;28;20227;-79
2020/12/16 00:09:20;;;;;;;10.20;9.30;;;9.00;99.90;;;;;;10284631;28;20207;-79
2020/12/16 00:14:21;;;;;;;9.23;8.30;;;9.00;99.90;;;;;;10335976;28;20223;-80
2020/12/16 00:19:23;;;;;;;10.17;9.13;;;9.00;99.90;;;;;;10301031;28;20207;-79
2020/12/16 00:24:25;;;;;;;9.40;8.60;;;9.00;99.90;;;;;;10290952;28;20222;-79
2020/12/16 00:29:27;;;;;;;10.50;9.43;;;9.00;99.90;;;;;;10328223;28;20667;-79
2020/12/16 00:34:28;;;;;;;8.60;7.80;;;8.90;99.90;;;;;;10325528;28;20230;-79
2020/12/16 00:39:31;;;;;;;8.97;8.07;;;8.90;99.90;;;;;;10314843;28;20215;-80
2020/12/16 00:44:32;;;;;;;8.93;8.10;;;8.80;99.90;;;;;;10317762;28;20338;-80
2020/12/16 00:49:34;;;;;;;9.23;8.33;;;8.80;99.90;;;;;;10317350;28;20255;-80
2020/12/16 00:54:37;;;;;;;9.60;8.80;;;8.80;99.90;;;;;;10321875;28;20606;-79
2020/12/16 00:59:39;;;;;;;10.47;9.40;;;8.80;99.90;;;;;;10297818;28;20191;-80
2020/12/16 01:04:41;;;;;;;9.73;8.83;;;8.80;99.90;;;;;;10317986;28;20310;-79
2020/12/16 01:09:43;;;;;;;9.47;8.60;;;8.80;99.90;;;;;;10328100;28;20214;-80
2020/12/16 01:14:47;;;;;;;9.57;8.77;;;8.80;99.90;;;;;;10355432;28;20286;-80
2020/12/16 01:19:49;;;;;;;10.40;9.50;;;8.90;99.90;;;;;;10320296;28;20195;-80
2020/12/16 01:24:52;;;;;;;9.73;8.93;;;8.90;99.90;;;;;;10315228;28;20239;-80
2020/12/16 01:29:54;;;;;;;9.73;8.83;;;8.90;99.90;;;;;;10306497;28;20212;-78
2020/12/16 01:34:56;;;;;;;10.53;9.47;;;9.00;99.90;;;;;;10309819;28;20766;-77
2020/12/16 01:39:58;;;;;;;9.77;8.83;;;9.00;99.90;;;;;;10285915;28;20270;-77
2020/12/16 01:45:09;;;;;;;9.40;8.60;;;9.10;99.90;;;;;;10309207;28;20226;-78
2020/12/16 01:50:13;;;;;;;9.47;8.60;;;9.20;99.90;;;;;;10300598;28;20207;-78
2020/12/16 01:55:18;;;;;;;9.93;9.03;;;9.20;99.90;;;;;;10310991;28;20270;-79
2020/12/16 02:00:36;;;;;;;9.40;8.40;;;9.20;99.90;;;;;;10301639;28;20203;-79
2020/12/16 02:05:39;;;;;;;8.63;7.83;;;9.20;99.90;;;;;;10266742;28;20229;-78
2020/12/16 02:10:46;;;;;;;8.80;7.90;;;9.30;99.90;;;;;;10298866;28;20660;-78
2020/12/16 02:15:49;;;;;;;8.77;7.97;;;9.40;99.90;;;;;;10313528;28;20337;-78
2020/12/16 02:20:54;;;;;;;9.00;8.20;;;9.30;99.90;;;;;;10354804;28;20206;-80
2020/12/16 02:25:57;;;;;;;8.80;7.90;;;9.30;99.90;;;;;;10328101;28;20311;-78
2020/12/16 02:30:59;;;;;;;8.80;8.00;;;9.30;99.90;;;;;;10310728;28;20322;-78
2020/12/16 02:36:09;;;;;;;9.17;8.37;;;9.40;99.90;;;;;;10314804;28;20231;-78
2020/12/16 02:41:27;;;;;;;8.60;7.80;;;9.40;99.90;;;;;;10292017;28;20262;-79
2020/12/16 02:46:31;;;;;;;8.87;8.07;;;9.40;99.90;;;;;;10308190;28;20220;-78
2020/12/16 02:51:33;;;;;;;9.10;8.40;;;9.40;99.90;;;;;;10310426;28;20273;-78
2020/12/16 02:56:36;;;;;;;8.83;8.00;;;9.50;99.90;;;;;;10317396;28;20220;-79
2020/12/16 03:01:43;;;;;;;8.43;7.73;;;9.50;99.90;;;;;;10318422;28;20274;-78
2020/12/16 03:07:20;;;;;;;9.50;8.60;;;9.50;99.90;;;;;;10226962;28;20349;-78
2020/12/16 03:12:23;;;;;;;9.60;8.67;;;9.50;99.90;;;;;;10318582;28;20244;-79
2020/12/16 03:17:29;;;;;;;10.67;9.67;;;9.50;99.90;;;;;;10311858;28;20299;-78
2020/12/16 03:22:37;;;;;;;10.87;9.97;;;9.50;99.90;;;;;;10279036;28;20176;-78
2020/12/16 03:28:18;;;;;;;10.37;9.50;;;9.50;99.90;;;;;;10325264;28;20234;-78
2020/12/16 03:33:25;;;;;;;10.50;9.50;;;9.50;99.90;;;;;;10319541;28;20222;-78
2020/12/16 03:38:43;;;;;;;10.50;9.60;;;9.60;99.90;;;;;;10300826;28;20270;-78
2020/12/16 03:43:47;;;;;;;11.07;10.07;;;9.50;99.90;;;;;;10262848;28;20228;-78
2020/12/16 03:48:49;;;;;;;12.03;9.97;;;9.50;99.90;;;;;;10279882;28;20220;-78
2020/12/16 03:53:52;;;;;;;11.23;9.80;;;9.50;99.90;;;;;;10291381;28;20226;-78
2020/12/16 03:59:17;;;;;;;11.00;10.00;;;9.50;99.90;;;;;;10280685;28;20195;-79
2020/12/16 04:04:45;;;;;;;11.37;10.17;;;9.50;99.90;;;;;;10278124;28;20230;-78
2020/12/16 04:09:47;;;;;;;11.67;10.50;;;9.50;99.90;;;;;;10282204;28;20315;-79
2020/12/16 04:14:49;;;;;;;12.20;10.93;;;9.50;99.90;;;;;;10316726;28;20227;-78
2020/12/16 04:19:54;;;;;;;10.80;9.80;;;9.50;99.90;;;;;;10281603;28;20188;-79
2020/12/16 04:24:56;;;;;;;9.40;8.60;;;9.40;99.90;;;;;;10302647;28;20319;-79
2020/12/16 04:30:04;;;;;;;11.03;9.93;;;9.40;99.90;;;;;;10289423;28;20211;-79
2020/12/16 04:35:10;;;;;;;9.93;8.93;;;9.40;99.90;;;;;;10304657;28;20223;-79
2020/12/16 04:40:15;;;;;;;9.40;8.50;;;9.30;99.90;;;;;;10323414;28;20249;-79
2020/12/16 04:45:18;;;;;;;10.47;9.53;;;9.30;99.90;;;;;;10268241;28;20582;-79
2020/12/16 04:50:20;;;;;;;10.30;9.40;;;9.20;99.90;;;;;;10267595;28;20200;-79
2020/12/16 04:55:28;;;;;;;10.30;9.40;;;9.10;99.90;;;;;;10284275;28;20291;-78
2020/12/16 05:00:51;;;;;;;11.10;10.10;;;9.00;99.90;;;;;;10281796;28;20275;-80
2020/12/16 05:06:01;;;;;;;11.60;10.50;;;8.90;99.90;;;;;;10292922;28;20223;-79
2020/12/16 05:11:04;;;;;;;9.67;8.87;;;8.90;99.90;;;;;;10329346;28;20299;-78
2020/12/16 05:16:07;;;;;;;10.50;9.60;;;8.80;99.90;;;;;;10336246;28;20618;-78
2020/12/16 05:21:08;;;;;;;8.97;8.27;;;8.70;99.90;;;;;;10335738;28;20656;-79
2020/12/16 05:26:11;;;;;;;7.97;7.27;;;8.60;99.90;;;;;;10325238;28;20775;-78
2020/12/16 05:31:15;;;;;;;8.97;8.17;;;8.50;99.90;;;;;;10332456;28;20591;-78
2020/12/16 05:36:28;;;;;;;10.13;9.33;;;8.50;99.90;;;;;;10327593;28;20238;-79
2020/12/16 05:41:32;;;;;;;9.70;8.93;;;8.50;99.90;;;;;;10323758;28;20254;-78
2020/12/16 05:46:34;;;;;;;10.17;9.27;;;8.50;99.90;;;;;;10341922;28;20646;-78
2020/12/16 05:51:36;;;;;;;9.33;8.53;;;8.40;99.90;;;;;;10343046;28;20751;-78
2020/12/16 05:56:37;;;;;;;9.93;9.03;;;8.50;99.90;;;;;;10342435;28;20251;-79
2020/12/16 06:01:42;;;;;;;11.67;10.47;;;8.50;99.90;;;;;;10328866;28;20289;-79
2020/12/16 06:06:44;;;;;;;10.17;9.17;;;8.50;99.90;;;;;;10345845;28;20573;-78
2020/12/16 06:11:53;;;;;;;10.53;9.70;;;8.50;99.90;;;;;;10326593;28;20211;-80
2020/12/16 06:17:09;;;;;;;10.27;9.37;;;8.60;99.90;;;;;;10330813;28;20709;-80
2020/12/16 06:22:11;;;;;;;10.97;9.27;;;8.60;99.90;;;;;;10281861;28;20183;-80
2020/12/16 06:27:13;;;;;;;9.80;8.90;;;8.60;99.90;;;;;;10267443;28;20591;-79
2020/12/16 06:32:32;;;;;;;10.10;9.20;;;8.60;99.90;;;;;;10337766;28;20234;-79
2020/12/16 06:37:34;;;;;;;11.17;10.00;;;8.70;99.90;;;;;;10320776;28;20238;-80
2020/12/16 06:42:35;;;;;;;9.97;9.10;;;8.70;99.90;;;;;;10338124;28;20195;-81
2020/12/16 06:47:38;;;;;;;10.73;9.77;;;8.70;99.90;;;;;;10338580;28;20268;-80
2020/12/16 06:52:39;;;;;;;12.57;11.37;;;8.70;99.90;;;;;;10322920;28;20286;-79
2020/12/16 06:57:48;;;;;;;11.87;10.77;;;8.70;99.90;;;;;;10319882;28;20751;-80
2020/12/16 07:02:51;;;;;;;10.13;9.23;;;8.80;99.90;;;;;;10320634;28;20188;-80
2020/12/16 07:07:56;;;;;;;9.97;9.07;;;8.80;99.90;;;;;;10338044;28;20223;-82
2020/12/16 07:13:11;;;;;;;15.30;13.70;;;8.90;99.90;;;;;;10321391;28;20230;-80
2020/12/16 07:18:42;;;;;;;10.73;9.73;;;8.90;99.90;;;;;;10340719;28;20198;-80
2020/12/16 07:23:45;;;;;;;9.93;8.93;;;8.90;99.90;;;;;;10333943;28;20219;-82
2020/12/16 07:28:46;;;;;;;10.27;9.37;;;8.90;99.90;;;;;;10287098;28;20199;-81
2020/12/16 07:33:49;;;;;;;10.00;9.00;;;8.80;99.90;;;;;;10329645;28;20219;-81
2020/12/16 07:38:53;;;;;;;10.67;9.20;;;8.80;99.90;;;;;;10305785;28;20271;-81
2020/12/16 07:43:56;;;;;;;10.10;9.20;;;8.80;99.90;;;;;;10284242;28;20216;-82
2020/12/16 07:48:59;;;;;;;14.10;12.60;;;8.80;99.90;;;;;;10308434;28;20203;-81
2020/12/16 07:54:00;;;;;;;12.60;11.20;;;8.90;99.90;;;;;;10319520;28;20223;-81
2020/12/16 07:59:10;;;;;;;10.80;9.70;;;8.80;99.90;;;;;;10293550;28;20200;-81
2020/12/16 08:04:17;;;;;;;10.33;8.80;;;8.80;99.90;;;;;;10311475;28;20274;-81
2020/12/16 08:09:22;;;;;;;10.40;9.40;;;8.90;99.90;;;;;;10311260;28;20243;-82
2020/12/16 08:14:24;;;;;;;9.80;9.00;;;8.90;99.90;;;;;;10310051;28;20226;-81
2020/12/16 08:19:35;;;;;;;8.20;7.40;;;8.90;99.90;;;;;;10319095;28;20277;-82
2020/12/16 08:24:39;;;;;;;9.13;8.27;;;9.00;99.90;;;;;;10306699;28;20219;-82
2020/12/16 08:29:42;;;;;;;9.57;8.60;;;9.10;99.90;;;;;;10285128;28;20204;-81
2020/12/16 08:34:50;;;;;;;8.17;7.47;;;9.20;99.90;;;;;;10283729;28;20649;-81
2020/12/16 08:39:52;;;;;;;7.90;7.20;;;9.30;99.90;;;;;;10308155;28;20262;-81
2020/12/16 08:45:07;;;;;;;7.97;7.33;;;9.30;99.90;;;;;;10341765;28;20235;-81
2020/12/16 08:50:15;;;;;;;8.13;7.43;;;9.20;99.90;;;;;;10329753;28;20202;-81
2020/12/16 08:55:19;;;;;;;8.23;7.43;;;9.30;99.90;;;;;;10366428;28;20226;-81
2020/12/16 09:00:29;;;;;;;8.10;7.40;;;9.30;99.90;;;;;;10324815;28;20675;-82
2020/12/16 09:05:39;;;;;;;8.43;7.43;;;9.40;99.90;;;;;;10328505;28;20338;-81
2020/12/16 09:10:43;;;;;;;9.20;8.30;;;9.40;99.90;;;;;;10319645;28;20606;-81
2020/12/16 09:15:49;;;;;;;8.80;8.00;;;9.50;99.90;;;;;;10305747;28;20246;-81
2020/12/16 09:20:51;;;;;;;7.90;7.17;;;9.60;99.90;;;;;;10306819;28;20667;-81
2020/12/16 09:25:55;;;;;;;7.93;7.23;;;9.70;99.90;;;;;;10316455;28;20219;-81
2020/12/16 09:30:57;;;;;;;7.50;6.80;;;9.70;99.90;;;;;;10339519;28;20211;-81
2020/12/16 09:35:59;;;;;;;7.20;6.60;;;9.70;99.90;;;;;;10313535;28;20231;-81
2020/12/16 09:41:02;;;;;;;8.07;7.37;;;9.70;99.90;;;;;;10314367;28;20580;-81
2020/12/16 09:46:13;;;;;;;8.40;7.60;;;9.80;99.90;;;;;;10347182;28;20215;-81
2020/12/16 09:51:19;;;;;;;9.23;8.33;;;9.90;99.90;;;;;;10316164;28;20199;-81
2020/12/16 09:56:24;;;;;;;10.97;8.40;;;9.90;99.90;;;;;;10354581;28;20219;-81
2020/12/16 10:01:28;;;;;;;8.13;7.40;;;10.00;99.90;;;;;;10333277;28;20227;-82
2020/12/16 10:06:30;;;;;;;7.13;6.53;;;10.10;99.90;;;;;;10288995;28;20295;-82
2020/12/16 10:11:32;;;;;;;7.50;6.90;;;10.10;99.90;;;;;;10308394;28;20203;-81
2020/12/16 10:16:34;;;;;;;7.80;7.10;;;10.00;99.90;;;;;;10325818;28;20309;-81
2020/12/16 10:21:36;;;;;;;7.60;6.90;;;10.00;99.90;;;;;;10337780;28;20699;-81
2020/12/16 10:26:38;;;;;;;9.23;7.93;;;9.90;99.90;;;;;;10342838;28;20219;-81
2020/12/16 10:31:39;;;;;;;8.80;8.00;;;9.90;99.90;;;;;;10303048;28;20232;-81
2020/12/16 10:36:42;;;;;;;9.67;8.57;;;9.90;99.90;;;;;;10374069;28;20222;-82
2020/12/16 10:41:48;;;;;;;9.33;8.43;;;9.90;99.90;;;;;;10366561;28;20206;-80
2020/12/16 10:46:54;;;;;;;9.77;8.77;;;9.90;99.90;;;;;;10351896;28;20226;-81
2020/12/16 10:51:56;;;;;;;12.40;11.10;;;9.90;99.90;;;;;;10335250;28;20210;-81
2020/12/16 10:56:59;;;;;;;11.50;10.30;;;9.90;99.90;;;;;;10331404;28;20727;-81
2020/12/16 11:02:02;;;;;;;11.93;10.70;;;10.00;99.90;;;;;;10342780;28;20231;-82
2020/12/16 11:07:03;;;;;;;15.93;12.07;;;9.90;99.90;;;;;;10314865;28;20524;-82
2020/12/16 11:12:05;;;;;;;12.40;10.90;;;10.00;99.90;;;;;;10340318;28;20570;-81
2020/12/16 11:17:08;;;;;;;12.77;11.57;;;10.00;99.90;;;;;;10319650;28;20744;-82
2020/12/16 11:22:10;;;;;;;14.47;12.97;;;10.00;99.90;;;;;;10364279;28;20190;-81
2020/12/16 11:27:11;;;;;;;14.53;11.87;;;10.00;99.90;;;;;;10368807;28;20218;-82
2020/12/16 11:32:14;;;;;;;13.30;12.10;;;10.10;99.90;;;;;;10355531;28;20223;-82
2020/12/16 11:37:16;;;;;;;12.47;11.23;;;10.10;99.90;;;;;;10360544;28;20581;-82
2020/12/16 11:42:17;;;;;;;12.47;11.17;;;10.10;99.90;;;;;;10335359;28;20195;-81
2020/12/16 11:47:20;;;;;;;12.40;11.20;;;10.20;99.90;;;;;;10362075;28;20253;-81
2020/12/16 11:52:21;;;;;;;13.80;12.37;;;10.20;99.90;;;;;;10343121;28;20342;-81
2020/12/16 11:57:24;;;;;;;12.80;11.50;;;10.20;99.90;;;;;;10342140;28;20233;-81
2020/12/16 12:02:27;;;;;;;12.03;10.90;;;10.30;99.90;;;;;;10324632;28;20194;-81
2020/12/16 12:07:29;;;;;;;13.43;11.23;;;10.40;99.90;;;;;;10345569;28;20657;-81
2020/12/16 12:12:30;;;;;;;12.90;11.43;;;10.50;99.90;;;;;;10300724;28;20211;-81
2020/12/16 12:17:38;;;;;;;11.90;10.70;;;10.50;99.90;;;;;;10358697;28;20243;-81
2020/12/16 12:22:39;;;;;;;11.87;10.67;;;10.60;99.90;;;;;;10370559;28;20183;-81
2020/12/16 12:27:41;;;;;;;10.90;9.80;;;10.70;99.90;;;;;;10353029;28;20224;-81
2020/12/16 12:32:44;;;;;;;10.60;9.30;;;10.70;99.90;;;;;;10300410;28;20219;-80
2020/12/16 12:37:45;;;;;;;11.10;10.00;;;10.70;99.90;;;;;;10322283;28;20667;-81
2020/12/16 12:42:47;;;;;;;10.93;9.47;;;10.70;99.90;;;;;;10326163;28;20194;-80
2020/12/16 12:47:58;;;;;;;10.23;9.23;;;10.80;99.90;;;;;;10299810;28;20595;-80
2020/12/16 12:53:00;;;;;;;11.07;9.53;;;10.80;99.90;;;;;;10312249;28;20212;-80
2020/12/16 12:58:02;;;;;;;10.73;9.63;;;10.80;99.90;;;;;;10355116;28;20285;-80
2020/12/16 13:03:04;;;;;;;11.27;9.60;;;10.90;99.90;;;;;;10333777;28;20315;-80
2020/12/16 13:08:06;;;;;;;10.13;9.10;;;10.90;99.90;;;;;;10331112;28;20206;-80
2020/12/16 13:13:08;;;;;;;8.40;7.70;;;10.90;99.90;;;;;;10329090;28;20212;-81
2020/12/16 13:18:11;;;;;;;9.73;8.83;;;10.90;99.90;;;;;;10319709;28;20195;-80
2020/12/16 13:23:15;;;;;;;8.53;7.73;;;10.90;99.90;;;;;;10309454;28;20230;-80
2020/12/16 13:28:17;;;;;;;9.03;8.07;;;10.90;99.90;;;;;;10328830;28;20211;-81
2020/12/16 13:33:20;;;;;;;10.33;8.50;;;10.80;99.90;;;;;;10311403;28;20254;-81
2020/12/16 13:38:23;;;;;;;9.73;8.80;;;10.80;99.90;;;;;;10314496;28;20211;-81
2020/12/16 13:43:25;;;;;;;10.07;8.90;;;10.70;99.90;;;;;;10312815;28;20211;-81
2020/12/16 13:48:27;;;;;;;8.83;8.03;;;10.70;99.90;;;;;;10311845;28;20227;-82
2020/12/16 13:53:29;;;;;;;9.23;8.33;;;10.60;99.90;;;;;;10339437;28;20207;-82
2020/12/16 13:58:32;;;;;;;8.07;7.23;;;10.60;99.90;;;;;;10315434;28;20245;-81
2020/12/16 14:03:35;;;;;;;10.87;9.80;;;10.50;99.90;;;;;;10336962;28;20211;-81
2020/12/16 14:08:37;;;;;;;8.93;8.03;;;10.50;99.90;;;;;;10366327;28;20282;-80
2020/12/16 14:13:40;;;;;;;9.27;8.23;;;10.50;99.90;;;;;;10329694;28;20219;-80
2020/12/16 14:18:42;;;;;;;9.77;8.73;;;10.40;99.90;;;;;;10344678;28;20209;-81
2020/12/16 14:23:44;;;;;;;8.23;7.20;;;10.40;99.90;;;;;;10302558;28;20219;-81
2020/12/16 14:28:46;;;;;;;9.37;8.47;;;10.30;99.90;;;;;;10292432;28;20199;-81
2020/12/16 14:33:49;;;;;;;9.80;8.80;;;10.30;99.90;;;;;;10337585;28;20229;-80
2020/12/16 14:38:50;;;;;;;9.60;8.70;;;10.30;99.90;;;;;;10348293;28;20214;-81
2020/12/16 14:43:52;;;;;;;9.53;8.63;;;10.20;99.90;;;;;;10346707;28;20221;-81
2020/12/16 14:48:55;;;;;;;12.67;9.07;;;10.10;99.90;;;;;;10369512;28;20563;-81
2020/12/16 14:53:57;;;;;;;10.63;9.63;;;10.10;99.90;;;;;;10370355;28;20226;-81
2020/12/16 14:58:58;;;;;;;10.27;9.37;;;10.10;99.90;;;;;;10340175;28;20254;-81
2020/12/16 15:04:01;;;;;;;10.33;9.30;;;10.00;99.90;;;;;;10329378;28;20716;-80
2020/12/16 15:09:04;;;;;;;10.60;9.50;;;9.90;99.90;;;;;;10299899;28;20239;-80
2020/12/16 15:14:07;;;;;;;13.13;11.67;;;9.90;99.90;;;;;;10328189;28;20231;-80
2020/12/16 15:19:09;;;;;;;12.40;11.20;;;9.80;99.90;;;;;;10307333;28;20231;-81
2020/12/16 15:24:11;;;;;;;12.23;11.07;;;9.80;99.90;;;;;;10309741;28;20215;-81
2020/12/16 15:29:13;;;;;;;12.03;10.53;;;9.70;99.90;;;;;;10305881;28;20199;-82
2020/12/16 15:34:15;;;;;;;10.70;9.67;;;9.60;99.90;;;;;;10305772;28;20314;-82
2020/12/16 15:39:17;;;;;;;9.27;8.30;;;9.60;99.90;;;;;;10295184;28;20211;-82
2020/12/16 15:44:19;;;;;;;10.87;9.77;;;9.60;99.90;;;;;;10307866;28;20309;-80
2020/12/16 15:49:23;;;;;;;11.33;10.17;;;9.60;99.90;;;;;;10331100;28;20203;-81
2020/12/16 15:54:24;;;;;;;11.57;10.37;;;9.60;99.90;;;;;;10364186;28;20227;-82
2020/12/16 15:59:27;;;;;;;11.40;10.30;;;9.50;99.90;;;;;;10304494;28;20211;-83
2020/12/16 16:04:30;;;;;;;10.90;9.80;;;9.50;99.90;;;;;;10307360;28;20310;-82
2020/12/16 16:09:31;;;;;;;11.90;10.70;;;9.50;99.90;;;;;;10337372;28;20296;-81
2020/12/16 16:14:34;;;;;;;16.03;10.73;;;9.50;99.90;;;;;;10332526;28;20643;-82
2020/12/16 16:19:41;;;;;;;12.07;10.70;;;9.40;99.90;;;;;;10324287;28;20211;-81
2020/12/16 16:24:43;;;;;;;38.73;27.47;;;9.40;99.90;;;;;;10313957;28;20673;-80
2020/12/16 16:29:45;;;;;;;16.17;14.67;;;9.30;99.90;;;;;;10312136;28;20231;-82
2020/12/16 16:34:48;;;;;;;16.17;14.50;;;9.20;99.90;;;;;;10303784;28;20246;-81
2020/12/16 16:39:53;;;;;;;14.97;13.33;;;9.20;99.90;;;;;;10298079;28;20227;-81
2020/12/16 16:44:55;;;;;;;12.70;11.40;;;9.10;99.90;;;;;;10299588;28;20212;-82
2020/12/16 16:49:59;;;;;;;15.47;13.80;;;9.00;99.90;;;;;;10329077;28;20262;-82
2020/12/16 16:55:04;;;;;;;11.60;10.40;;;8.90;99.90;;;;;;10283213;28;20222;-79
2020/12/16 17:00:08;;;;;;;14.30;12.90;;;8.90;99.90;;;;;;10319641;28;20227;-80
2020/12/16 17:05:11;;;;;;;15.07;12.87;;;8.80;99.90;;;;;;10301652;28;20220;-82
2020/12/16 17:10:14;;;;;;;13.57;12.17;;;8.80;99.90;;;;;;10304779;28;20207;-81
2020/12/16 17:15:17;;;;;;;18.03;16.23;;;8.70;99.90;;;;;;10300089;28;20277;-83
2020/12/16 17:20:24;;;;;;;12.87;11.57;;;8.70;99.90;;;;;;10306726;28;20301;-81
2020/12/16 17:25:26;;;;;;;12.83;11.60;;;8.70;99.90;;;;;;10295256;28;20219;-83
2020/12/16 17:30:27;;;;;;;17.60;12.53;;;8.60;99.90;;;;;;10310671;28;20642;-83
2020/12/16 17:35:33;;;;;;;24.93;22.60;;;8.60;99.90;;;;;;10307545;28;20242;-80
2020/12/16 17:40:34;;;;;;;13.97;12.57;;;8.60;99.90;;;;;;10300188;28;20279;-81
2020/12/16 17:46:00;;;;;;;13.57;12.27;;;8.60;99.90;;;;;;10304623;28;20210;-82
2020/12/16 17:51:12;;;;;;;13.40;12.07;;;8.50;99.90;;;;;;10328808;28;20192;-82
2020/12/16 17:56:14;;;;;;;12.93;11.73;;;8.50;99.90;;;;;;10316356;28;20224;-82
2020/12/16 18:01:15;;;;;;;10.90;9.90;;;8.40;99.90;;;;;;10289724;28;20208;-80
2020/12/16 18:06:18;;;;;;;11.77;10.63;;;8.40;99.90;;;;;;10296476;28;20223;-81
2020/12/16 18:11:27;;;;;;;11.33;10.20;;;8.40;99.90;;;;;;10326343;28;20262;-80
2020/12/16 18:16:28;;;;;;;10.80;9.90;;;8.40;99.90;;;;;;10329563;28;20633;-81
2020/12/16 18:21:31;;;;;;;12.43;11.27;;;8.40;99.90;;;;;;10351956;28;20202;-81
2020/12/16 18:26:37;;;;;;;12.20;10.13;;;8.40;99.90;;;;;;10383436;28;20694;-80
2020/12/16 18:31:39;;;;;;;11.43;10.33;;;8.40;99.90;;;;;;10333657;28;20230;-81
2020/12/16 18:36:42;;;;;;;11.20;10.03;;;8.30;99.90;;;;;;10306924;28;20695;-81
2020/12/16 18:41:44;;;;;;;13.10;9.80;;;8.30;99.90;;;;;;10304513;28;20202;-81
2020/12/16 18:46:46;;;;;;;11.70;10.50;;;8.20;99.90;;;;;;10325947;28;20603;-82
2020/12/16 18:51:48;;;;;;;11.30;10.30;;;8.20;99.90;;;;;;10331211;28;20206;-80
2020/12/16 18:56:50;;;;;;;12.90;11.70;;;8.20;99.90;;;;;;10306057;28;20227;-81
2020/12/16 19:01:52;;;;;;;16.50;14.90;;;8.10;99.90;;;;;;10319637;28;20336;-82
2020/12/16 19:06:55;;;;;;;107.93;78.30;;;8.10;99.90;;;;;;10321144;28;20215;-80
2020/12/16 19:11:57;;;;;;;19.87;17.60;;;8.10;99.90;;;;;;10319285;28;20679;-80
2020/12/16 19:16:59;;;;;;;13.70;12.33;;;8.10;99.90;;;;;;10305479;28;20242;-78
2020/12/16 19:22:01;;;;;;;14.40;12.90;;;8.00;99.90;;;;;;10311352;28;20218;-79
2020/12/16 19:27:03;;;;;;;16.03;14.33;;;8.00;99.90;;;;;;10283875;28;20318;-79
2020/12/16 19:32:05;;;;;;;13.07;11.77;;;8.00;99.90;;;;;;10300391;28;20210;-79
2020/12/16 19:37:08;;;;;;;13.83;12.53;;;8.00;99.90;;;;;;10309317;28;20270;-78
2020/12/16 19:42:09;;;;;;;14.93;13.33;;;7.90;99.90;;;;;;10311461;28;20234;-81
2020/12/16 19:47:13;;;;;;;17.03;15.23;;;7.80;99.90;;;;;;10330654;28;20219;-79
2020/12/16 19:52:17;;;;;;;16.97;15.30;;;7.80;99.90;;;;;;10308958;28;20294;-77
2020/12/16 19:57:19;;;;;;;17.30;14.70;;;7.70;99.90;;;;;;10272638;28;20215;-78
2020/12/16 20:02:21;;;;;;;18.10;15.63;;;7.70;99.90;;;;;;10253784;28;20223;-81
2020/12/16 20:07:24;;;;;;;16.20;14.27;;;7.60;99.90;;;;;;10277076;28;20230;-78
2020/12/16 20:12:33;;;;;;;18.00;16.20;;;7.60;99.90;;;;;;10318195;28;20281;-81
2020/12/16 20:17:36;;;;;;;16.97;14.83;;;7.60;99.90;;;;;;10318155;28;20245;-79
2020/12/16 20:22:39;;;;;;;17.23;14.13;;;7.60;99.90;;;;;;10329673;28;20687;-82
2020/12/16 20:27:41;;;;;;;15.23;13.70;;;7.60;99.90;;;;;;10329453;28;20698;-80
2020/12/16 20:32:45;;;;;;;16.43;14.73;;;7.60;99.90;;;;;;10347159;28;20620;-79
2020/12/16 20:37:47;;;;;;;14.87;12.57;;;7.60;99.90;;;;;;10320137;28;20230;-82
2020/12/16 20:42:49;;;;;;;17.17;14.90;;;7.70;99.90;;;;;;10328617;28;20691;-81
2020/12/16 20:47:51;;;;;;;16.03;14.43;;;7.60;99.90;;;;;;10332734;28;20304;-80
2020/12/16 20:52:53;;;;;;;14.30;12.87;;;7.60;99.90;;;;;;10311812;28;20313;-79
2020/12/16 20:57:55;;;;;;;15.77;14.17;;;7.60;99.90;;;;;;10329884;28;20306;-79
2020/12/16 21:02:58;;;;;;;15.27;13.33;;;7.60;99.90;;;;;;10339081;28;20594;-80
2020/12/16 21:08:01;;;;;;;15.23;13.80;;;7.50;99.90;;;;;;10307139;28;20196;-80
2020/12/16 21:13:05;;;;;;;19.00;15.40;;;7.50;99.90;;;;;;10312753;28;20238;-81
2020/12/16 21:18:07;;;;;;;17.83;15.80;;;7.50;99.90;;;;;;10304929;28;20207;-81
2020/12/16 21:23:09;;;;;;;19.93;16.97;;;7.50;99.90;;;;;;10317826;28;20211;-81
2020/12/16 21:28:11;;;;;;;21.27;19.00;;;7.60;99.90;;;;;;10317625;28;20207;-80
2020/12/16 21:33:13;;;;;;;19.90;17.70;;;7.60;99.90;;;;;;10301351;28;20249;-81
2020/12/16 21:38:15;;;;;;;19.67;17.77;;;7.70;99.90;;;;;;10322485;28;20302;-81
2020/12/16 21:43:19;;;;;;;19.67;17.03;;;7.70;99.90;;;;;;10346334;28;20235;-80
2020/12/16 21:48:21;;;;;;;20.00;17.80;;;7.80;99.90;;;;;;10341655;28;20203;-79
2020/12/16 21:53:23;;;;;;;19.50;17.40;;;7.80;99.90;;;;;;10306409;28;20227;-80
2020/12/16 21:58:25;;;;;;;17.80;16.00;;;7.70;99.90;;;;;;10307457;28;20218;-79
2020/12/16 22:03:27;;;;;;;17.60;15.23;;;7.70;99.90;;;;;;10335869;28;20221;-80
2020/12/16 22:08:30;;;;;;;18.13;15.60;;;7.60;99.90;;;;;;10318816;28;20191;-81
2020/12/16 22:13:31;;;;;;;18.17;16.33;;;7.50;99.90;;;;;;10352948;28;20637;-79
2020/12/16 22:18:33;;;;;;;18.00;16.10;;;7.40;99.90;;;;;;10358375;28;20927;-79
2020/12/16 22:23:36;;;;;;;17.60;15.90;;;7.40;99.90;;;;;;10340387;28;20211;-78
2020/12/16 22:28:38;;;;;;;20.90;17.67;;;7.30;99.90;;;;;;10330331;28;20612;-79
2020/12/16 22:33:40;;;;;;;18.20;16.30;;;7.30;99.90;;;;;;10274505;28;20443;-79
2020/12/16 22:38:43;;;;;;;17.70;15.77;;;7.30;99.90;;;;;;10301222;28;20207;-79
2020/12/16 22:43:45;;;;;;;17.90;16.00;;;7.30;99.90;;;;;;10315980;28;20223;-80
2020/12/16 22:48:47;;;;;;;17.50;15.80;;;7.30;99.90;;;;;;10333950;28;20735;-79
2020/12/16 22:53:49;;;;;;;18.27;16.47;;;7.40;99.90;;;;;;10315017;28;20235;-79
2020/12/16 22:58:51;;;;;;;17.90;16.00;;;7.40;99.90;;;;;;10290472;28;20211;-80
2020/12/16 23:03:53;;;;;;;17.77;15.97;;;7.40;99.90;;;;;;10332763;28;20249;-79
2020/12/16 23:08:55;;;;;;;18.80;16.93;;;7.40;99.90;;;;;;10297299;28;20209;-79
2020/12/16 23:13:57;;;;;;;17.80;16.00;;;7.40;99.90;;;;;;10330747;28;20801;-80
2020/12/16 23:18:59;;;;;;;18.30;16.40;;;7.40;99.90;;;;;;10313087;28;20688;-80
2020/12/16 23:24:02;;;;;;;16.20;14.50;;;7.40;99.90;;;;;;10331966;28;20227;-79
2020/12/16 23:29:04;;;;;;;17.00;15.20;;;7.40;99.90;;;;;;10311644;28;20200;-80
2020/12/16 23:34:07;;;;;;;16.47;14.77;;;7.40;99.90;;;;;;10336878;28;20273;-80
2020/12/16 23:39:10;;;;;;;19.53;17.43;;;7.30;99.90;;;;;;10353630;28;20734;-79
2020/12/16 23:44:12;;;;;;;17.73;15.87;;;7.20;99.90;;;;;;10372128;28;20598;-79
2020/12/16 23:49:13;;;;;;;17.03;15.00;;;7.20;99.90;;;;;;10355901;28;20225;-80
2020/12/16 23:54:16;;;;;;;16.67;15.07;;;7.20;99.90;;;;;;10372159;28;20587;-80
2020/12/16 23:59:18;;;;;;;17.20;15.57;;;7.20;99.90;;;;;;10350779;28;20210;-79
